createdAt,value
2023-07-24T00:00:47.161Z,3.9
2023-07-24T00:02:51.468Z,3.8
2023-07-24T00:04:52.465Z,3.3
2023-07-24T00:06:53.564Z,2.9
2023-07-24T00:09:21.504Z,4.1
2023-07-24T00:11:22.564Z,3.4
2023-07-24T00:13:23.613Z,3.2
2023-07-24T00:21:31.125Z,3.5
2023-07-24T00:23:32.193Z,2.7
2023-07-24T00:27:34.330Z,3.3
2023-07-24T00:29:38.574Z,2.9
2023-07-24T00:43:49.217Z,4
2023-07-24T00:45:50.305Z,3.4
2023-07-24T00:47:51.396Z,3.5
2023-07-24T00:49:52.421Z,3.8
2023-07-24T00:53:54.568Z,3.5
2023-07-24T00:55:55.668Z,3.1
2023-07-24T01:00:00.972Z,3.7
2023-07-24T01:03:04.247Z,3.6
2023-07-24T01:09:07.387Z,3.9
2023-07-24T01:17:14.834Z,3.7
2023-07-24T01:19:15.905Z,3.7
2023-07-24T01:23:18.155Z,4.4
2023-07-24T01:27:23.366Z,4.8
2023-07-24T01:29:24.462Z,4.6
2023-07-24T01:33:26.594Z,4.2
2023-07-24T01:35:27.691Z,4.3
2023-07-24T01:49:38.357Z,6
2023-07-24T01:51:39.425Z,5.2
2023-07-24T01:53:43.721Z,5.1
2023-07-24T01:55:44.800Z,5.4
2023-07-24T01:57:45.820Z,4.3
2023-07-24T01:58:47.977Z,4.3
2023-07-24T02:02:50.165Z,5
2023-07-24T02:08:56.558Z,4.3
2023-07-24T02:12:58.683Z,4.4
2023-07-24T02:19:01.895Z,4.7
2023-07-24T02:21:06.160Z,5
2023-07-24T02:23:07.236Z,4.7
2023-07-24T02:25:08.324Z,5.5
2023-07-24T02:27:09.403Z,5.2
2023-07-24T02:29:10.457Z,5.1
2023-07-24T02:31:11.584Z,4.5
2023-07-24T02:33:12.637Z,5.2
2023-07-24T02:35:16.922Z,5.5
2023-07-24T02:37:17.948Z,5.2
2023-07-24T02:39:19.074Z,6.7
2023-07-24T02:41:20.154Z,6
2023-07-24T02:43:21.214Z,4.6
2023-07-24T02:45:22.299Z,5.5
2023-07-24T02:47:23.451Z,5.5
2023-07-24T02:49:27.640Z,6
2023-07-24T02:51:28.700Z,6.1
2023-07-24T02:53:29.809Z,5.2
2023-07-24T02:54:31.936Z,6
2023-07-24T03:06:41.575Z,4.8
2023-07-24T03:28:58.149Z,5.6
2023-07-24T03:41:07.817Z,6.4
2023-07-24T03:43:08.849Z,5.9
2023-07-24T03:45:13.126Z,5.5
2023-07-24T03:47:14.228Z,5.4
2023-07-24T03:49:15.287Z,6.3
2023-07-24T03:51:43.280Z,5.4
2023-07-24T03:53:44.372Z,6
2023-07-24T03:55:45.515Z,4.9
2023-07-24T03:57:49.675Z,5.7
2023-07-24T03:59:50.788Z,5.4
2023-07-24T04:01:51.837Z,5.7
2023-07-24T04:03:52.960Z,4.7
2023-07-24T04:05:54.025Z,6.1
2023-07-24T04:07:55.114Z,4.5
2023-07-24T04:09:56.166Z,5.2
2023-07-24T04:12:00.474Z,5.6
2023-07-24T04:14:01.565Z,6
2023-07-24T04:16:02.614Z,5.3
2023-07-24T04:18:03.772Z,6.7
2023-07-24T04:22:05.856Z,6.3
2023-07-24T04:26:11.230Z,5.7
2023-07-24T04:28:12.302Z,6.2
2023-07-24T04:40:22.007Z,6.2
2023-07-24T04:45:26.336Z,6.9
2023-07-24T04:47:27.433Z,7
2023-07-24T04:49:28.498Z,6.2
2023-07-24T04:51:29.576Z,8.3
2023-07-24T04:53:33.856Z,7.7
2023-07-24T04:55:34.919Z,6.9
2023-07-24T04:57:36.004Z,7.2
2023-07-24T04:59:37.079Z,6.5
2023-07-24T05:01:38.234Z,7.1
2023-07-24T05:03:39.277Z,6.8
2023-07-24T05:09:45.722Z,6.2
2023-07-24T05:15:48.938Z,7.4
2023-07-24T05:17:50.193Z,7.8
2023-07-24T05:19:51.107Z,5.8
2023-07-24T05:34:01.931Z,7.4
2023-07-24T05:36:06.192Z,8.7
2023-07-24T05:38:07.293Z,8.5
2023-07-24T05:40:08.375Z,6.9
2023-07-24T05:41:10.480Z,8.2
2023-07-24T05:45:12.684Z,7.9
2023-07-24T05:47:13.758Z,7.6
2023-07-24T05:51:19.117Z,7.9
2023-07-24T05:53:20.206Z,9
2023-07-24T05:55:21.263Z,8
2023-07-24T05:57:22.326Z,8.1
2023-07-24T06:09:32.021Z,8.3
2023-07-24T06:11:33.066Z,7.7
2023-07-24T06:13:34.166Z,6.9
2023-07-24T06:25:43.819Z,8.4
2023-07-24T06:36:55.241Z,8.2
2023-07-24T06:38:55.588Z,7.5
2023-07-24T06:40:56.626Z,6.4
2023-07-24T06:42:57.693Z,6.3
2023-07-24T06:45:01.977Z,9.9
2023-07-24T06:47:03.016Z,6.8
2023-07-24T06:49:04.137Z,6.9
2023-07-24T06:51:05.254Z,6.2
2023-07-24T06:53:06.258Z,5.9
2023-07-24T06:55:07.323Z,6.4
2023-07-24T06:57:08.418Z,6.2
2023-07-24T06:59:12.635Z,5.1
2023-07-24T07:01:13.763Z,5.6
2023-07-24T07:03:14.800Z,5.4
2023-07-24T07:05:15.845Z,4.3
2023-07-24T07:07:16.866Z,6.3
2023-07-24T07:09:17.918Z,5.3
2023-07-24T07:11:18.986Z,5
2023-07-24T07:15:24.298Z,6.5
2023-07-24T07:19:26.394Z,4.8
2023-07-24T07:21:27.483Z,5.4
2023-07-24T07:23:28.499Z,4.9
2023-07-24T07:29:34.874Z,4.2
2023-07-24T07:36:04.850Z,5.2
2023-07-24T07:48:14.359Z,6.5
2023-07-24T07:50:15.351Z,5.4
2023-07-24T07:52:16.406Z,5.3
2023-07-24T07:54:20.596Z,5.4
2023-07-24T07:56:21.616Z,5.7
2023-07-24T08:02:24.683Z,4.8
2023-07-24T08:04:25.639Z,4.2
2023-07-24T08:06:26.705Z,4.6
2023-07-24T08:08:30.812Z,5.3
2023-07-24T08:10:31.805Z,4.8
2023-07-24T08:12:32.804Z,4.1
2023-07-24T08:16:35.246Z,4.9
2023-07-24T08:18:35.791Z,5.4
2023-07-24T08:20:36.761Z,5.2
2023-07-24T08:26:42.937Z,4.5
2023-07-24T08:27:57.615Z,4
2023-07-24T08:39:54.264Z,4.2
2023-07-24T08:41:55.262Z,4.6
2023-07-24T08:43:56.275Z,3.9
2023-07-24T08:45:57.293Z,4.4
2023-07-24T08:50:02.500Z,5.8
2023-07-24T08:54:04.561Z,3.7
2023-07-24T08:56:05.567Z,3.8
2023-07-24T08:58:06.583Z,5.1
2023-07-24T09:02:08.574Z,6.3
2023-07-24T09:04:12.843Z,4.7
2023-07-24T09:06:13.824Z,5.3
2023-07-24T09:12:16.819Z,4.9
2023-07-24T09:23:28.630Z,4.7
2023-07-24T09:25:29.645Z,5
2023-07-24T09:27:32.227Z,4.9
2023-07-24T09:29:31.610Z,4
2023-07-24T09:31:35.847Z,4.7
2023-07-24T09:33:36.784Z,4.6
2023-07-24T09:37:38.826Z,4.6
2023-07-24T09:41:41.424Z,4.7
2023-07-24T09:43:41.984Z,5.6
2023-07-24T09:45:46.495Z,4.7
2023-07-24T09:49:48.090Z,4.2
2023-07-24T09:51:48.978Z,3.8
2023-07-24T09:55:50.957Z,4
2023-07-24T10:01:57.072Z,4.6
2023-07-24T10:03:58.000Z,7.7
2023-07-24T10:05:58.976Z,4.7
2023-07-24T10:07:59.989Z,4.4
2023-07-24T10:10:00.959Z,5.7
2023-07-24T10:12:01.930Z,4.7
2023-07-24T10:14:06.120Z,4
2023-07-24T10:16:07.101Z,5.4
2023-07-24T10:18:08.081Z,5.9
2023-07-24T10:19:10.174Z,6.6
2023-07-24T10:43:28.426Z,6.7
2023-07-24T10:53:33.438Z,5.2
2023-07-24T10:55:37.669Z,7.3
2023-07-24T10:59:39.625Z,4.5
2023-07-24T11:01:40.689Z,4.7
2023-07-24T11:03:41.602Z,6.6
2023-07-24T11:09:47.794Z,4.1
2023-07-24T11:11:48.788Z,5.2
2023-07-24T11:13:49.800Z,5.9
2023-07-24T11:16:17.654Z,5.1
2023-07-24T11:18:18.619Z,4.4
2023-07-24T11:22:23.788Z,4.2
2023-07-24T11:24:24.901Z,4.8
2023-07-24T11:26:25.868Z,5.7
2023-07-24T11:28:26.791Z,4.7
2023-07-24T11:30:27.824Z,5.8
2023-07-24T11:32:28.849Z,5.8
2023-07-24T11:34:29.790Z,11.4
2023-07-24T11:36:34.046Z,6.6
2023-07-24T11:38:35.020Z,5.8
2023-07-24T11:40:36.013Z,6.3
2023-07-24T11:44:38.036Z,5
2023-07-24T11:46:39.060Z,5.8
2023-07-24T11:52:45.272Z,5.3
2023-07-24T11:56:47.269Z,3.8
2023-07-24T11:58:48.246Z,5.2
2023-07-24T12:00:49.260Z,4.5
2023-07-24T12:02:50.340Z,4.4
2023-07-24T12:04:54.447Z,4.8
2023-07-24T12:06:55.462Z,5
2023-07-24T12:08:56.481Z,4
2023-07-24T12:09:58.534Z,5
2023-07-24T12:22:07.746Z,5.9
2023-07-24T12:24:08.760Z,5.4
2023-07-24T12:26:09.728Z,5.3
2023-07-24T12:28:10.768Z,4.8
2023-07-24T12:30:11.742Z,5.3
2023-07-24T12:32:15.915Z,6.1
2023-07-24T12:36:17.924Z,6
2023-07-24T12:40:19.952Z,5.1
2023-07-24T12:52:29.038Z,5.1
2023-07-24T12:54:37.245Z,5.2
2023-07-24T12:56:31.038Z,6
2023-07-24T12:58:31.975Z,6.2
2023-07-24T13:00:36.228Z,4.7
2023-07-24T13:02:37.176Z,6.8
2023-07-24T13:04:38.107Z,6.3
2023-07-24T13:17:49.356Z,6.1
2023-07-24T13:19:50.271Z,5.3
2023-07-24T13:21:51.250Z,5.1
2023-07-24T13:23:52.179Z,5.2
2023-07-24T13:25:53.166Z,4.5
2023-07-24T13:27:57.368Z,4.2
2023-07-24T13:29:58.306Z,3.8
2023-07-24T13:31:59.282Z,4.8
2023-07-24T13:34:00.238Z,4.7
2023-07-24T13:36:01.172Z,5
2023-07-24T13:38:02.142Z,5
2023-07-24T13:40:03.093Z,5.6
2023-07-24T13:42:07.255Z,5.4
2023-07-24T13:44:08.233Z,5.2
2023-07-24T13:46:09.235Z,4.7
2023-07-24T13:48:10.144Z,4.7
2023-07-24T13:50:11.119Z,5.2
2023-07-24T13:52:12.060Z,4.4
2023-07-24T13:56:17.207Z,6.6
2023-07-24T14:01:21.356Z,5.3
2023-07-24T14:03:22.414Z,5.6
2023-07-24T14:05:23.309Z,5.5
2023-07-24T14:09:28.529Z,5.6
2023-07-24T14:11:29.913Z,5.9
2023-07-24T14:13:30.566Z,5.1
2023-07-24T14:15:31.608Z,5
2023-07-24T14:17:32.654Z,6.5
2023-07-24T14:19:33.661Z,5.5
2023-07-24T14:21:34.676Z,4.7
2023-07-24T14:23:38.908Z,6
2023-07-24T14:25:39.963Z,5.1
2023-07-24T14:27:41.004Z,4.3
2023-07-24T14:29:42.071Z,4.4
2023-07-24T14:31:43.127Z,5.2
2023-07-24T14:33:44.147Z,5.4
2023-07-24T14:35:45.184Z,5.1
2023-07-24T14:37:49.435Z,6.6
2023-07-24T14:39:50.499Z,8.1
2023-07-24T14:41:51.510Z,30.2
2023-07-24T14:43:52.596Z,19.4
2023-07-24T14:54:00.981Z,7.1
2023-07-24T14:56:02.006Z,7.2
2023-07-24T14:58:29.944Z,16.2
2023-07-24T15:00:30.925Z,8.2
2023-07-24T15:02:31.991Z,9.9
2023-07-24T15:04:37.738Z,9.5
2023-07-24T15:06:38.711Z,8.5
2023-07-24T15:08:39.769Z,7.4
2023-07-24T15:10:40.788Z,8.9
2023-07-24T15:14:42.941Z,9.2
2023-07-24T15:16:43.889Z,7.9
2023-07-24T15:18:48.141Z,9.4
2023-07-24T15:26:52.285Z,6.4
2023-07-24T15:41:02.739Z,2.4
2023-07-24T15:49:10.127Z,2.7
2023-07-24T15:51:11.183Z,1.7
2023-07-24T15:52:13.301Z,1.9
2023-07-24T15:56:15.398Z,1.8
2023-07-24T15:58:16.427Z,2
2023-07-24T16:00:20.683Z,2.9
2023-07-24T16:02:21.781Z,1.7
2023-07-24T16:04:22.934Z,1.6
2023-07-24T16:06:23.833Z,1.4
2023-07-24T16:08:24.899Z,2.2
2023-07-24T16:10:25.945Z,2.3
2023-07-24T16:12:27.002Z,1.7
2023-07-24T16:14:31.283Z,1.5
2023-07-24T16:16:32.313Z,2.1
2023-07-24T16:18:33.428Z,2.3
2023-07-24T16:20:35.536Z,1.7
2023-07-24T16:22:35.464Z,2.3
2023-07-24T16:26:37.580Z,3.3
2023-07-24T16:28:41.815Z,1.5
2023-07-24T16:30:42.915Z,1.9
2023-07-24T16:32:49.166Z,1.2
2023-07-24T16:34:44.976Z,1.8
2023-07-24T16:36:46.456Z,1.3
2023-07-24T16:40:48.172Z,1.3
2023-07-24T16:42:56.478Z,1.8
2023-07-24T16:47:11.761Z,1.1
2023-07-24T16:47:56.739Z,1.6
2023-07-24T17:00:06.299Z,2
2023-07-24T17:02:07.395Z,2.4
2023-07-24T17:06:09.515Z,2.2
2023-07-24T17:10:14.890Z,1.3
2023-07-24T17:18:19.176Z,2.5
2023-07-24T17:22:21.366Z,1.9
2023-07-24T17:24:25.653Z,1.1
2023-07-24T17:26:26.683Z,2.4
2023-07-24T17:28:27.777Z,2.9
2023-07-24T17:30:28.912Z,2.2
2023-07-24T17:34:31.009Z,3
2023-07-24T17:43:40.657Z,3.3
2023-07-24T17:45:41.741Z,1.8
2023-07-24T17:47:42.932Z,1.5
2023-07-24T17:49:53.246Z,3.4
2023-07-24T17:51:48.212Z,1.7
2023-07-24T17:53:49.306Z,3.4
2023-07-24T17:55:51.618Z,1.6
2023-07-24T17:57:51.534Z,3.1
2023-07-24T17:59:52.568Z,1.5
2023-07-24T18:01:53.670Z,1.7
2023-07-24T18:03:54.777Z,3.7
2023-07-24T18:05:59.007Z,8.4
2023-07-24T18:14:03.344Z,2.2
2023-07-24T18:18:05.552Z,1.2
2023-07-24T18:20:09.786Z,1.4
2023-07-24T18:22:10.883Z,0.8
2023-07-24T18:26:13.071Z,1.3
2023-07-24T18:28:14.141Z,1.8
2023-07-24T18:30:15.220Z,1.9
2023-07-24T18:36:21.698Z,0.6
2023-07-24T18:38:22.807Z,1.8
2023-07-24T18:53:00.564Z,1.9
2023-07-24T19:05:10.440Z,2.7
2023-07-24T19:07:11.438Z,2.6
2023-07-24T19:09:12.524Z,2
2023-07-24T19:11:13.607Z,0.9
2023-07-24T19:13:14.724Z,2.1
2023-07-24T19:15:18.980Z,1.3
2023-07-24T19:17:20.103Z,1
2023-07-24T19:19:21.187Z,1.9
2023-07-24T19:21:22.295Z,1.4
2023-07-24T19:23:23.413Z,1
2023-07-24T19:25:24.505Z,1.6
2023-07-24T19:27:25.605Z,1.4
2023-07-24T19:29:29.900Z,1.2
2023-07-24T19:31:31.198Z,2.4
2023-07-24T19:33:32.099Z,1.6
2023-07-24T19:34:34.268Z,1.6
2023-07-24T19:54:48.523Z,1.3
2023-07-24T19:56:52.821Z,3.3
2023-07-24T19:58:53.918Z,1.4
2023-07-24T20:00:55.037Z,1.9
2023-07-24T20:02:56.219Z,2
2023-07-24T20:04:57.248Z,3.3
2023-07-24T20:06:58.346Z,2.3
2023-07-24T20:19:08.179Z,2.9
2023-07-24T20:21:09.258Z,2.1
2023-07-24T20:23:10.360Z,3.1
2023-07-24T20:29:16.866Z,2.3
2023-07-24T20:30:18.995Z,2
2023-07-24T20:36:22.307Z,2.1
2023-07-24T20:38:26.587Z,2.1
2023-07-24T20:40:27.678Z,2.3
2023-07-24T20:42:28.795Z,2.1
2023-07-24T20:46:31.007Z,1.5
2023-07-24T20:48:32.097Z,2
2023-07-24T20:50:33.199Z,1.6
2023-07-24T20:52:37.485Z,1.7
2023-07-24T20:54:40.125Z,2.5
2023-07-24T20:56:41.180Z,2.4
2023-07-24T20:58:42.334Z,2.4
2023-07-24T21:00:43.382Z,3.3
2023-07-24T21:04:45.651Z,2.6
2023-07-24T21:08:50.967Z,2
2023-07-24T21:10:52.094Z,2.1
2023-07-24T21:14:54.256Z,1.3
2023-07-24T21:16:55.377Z,1.3
2023-07-24T21:18:56.460Z,3.5
2023-07-24T21:21:01.899Z,2.1
2023-07-24T21:23:01.862Z,1.6
2023-07-24T21:25:02.956Z,2.9
2023-07-24T21:26:05.111Z,3.5
2023-07-24T21:30:07.289Z,2.4
2023-07-24T21:32:08.380Z,2.7
2023-07-24T21:34:12.700Z,2.1
2023-07-24T21:36:13.781Z,3.5
2023-07-24T21:40:15.990Z,2.3
2023-07-24T21:42:17.120Z,2.3
2023-07-24T21:44:18.213Z,2.3
2023-07-24T21:46:19.327Z,2.7
2023-07-24T21:50:24.702Z,2.1
2023-07-24T21:52:25.809Z,4.3
2023-07-24T21:54:26.910Z,10.1
2023-07-24T21:56:28.019Z,2.5
2023-07-24T21:58:29.135Z,2.4
2023-07-24T22:00:30.285Z,1.8
2023-07-24T22:04:35.667Z,3.5
2023-07-24T22:06:36.857Z,4.1
2023-07-24T22:12:40.142Z,2.3
2023-07-24T22:16:45.559Z,2.2
2023-07-24T22:18:46.667Z,2.1
2023-07-24T22:20:47.774Z,2
2023-07-24T22:25:17.100Z,3.2
2023-07-24T22:27:18.212Z,2.8
2023-07-24T22:29:22.510Z,3.2
2023-07-24T22:31:23.688Z,2
2023-07-24T22:33:24.760Z,3.7
2023-07-24T22:35:25.864Z,2.2
2023-07-24T22:37:27.098Z,3.4
2023-07-24T22:41:29.867Z,2.5
2023-07-24T22:45:35.184Z,2.9
2023-07-24T22:47:36.496Z,4.5
2023-07-24T22:49:37.632Z,5.3
2023-07-24T22:53:40.086Z,1.7
2023-07-24T23:09:53.227Z,1.7
2023-07-24T23:11:57.495Z,2.1
2023-07-24T23:13:58.737Z,1.9
2023-07-24T23:15:59.962Z,3.8
2023-07-24T23:17:02.198Z,2.8
2023-07-24T23:31:13.994Z,2.1
2023-07-24T23:33:15.217Z,2.3
2023-07-24T23:37:17.648Z,3.4
2023-07-24T23:41:23.381Z,3
2023-07-24T23:45:25.831Z,2.4
2023-07-24T23:47:27.091Z,2.2
2023-07-24T23:49:28.328Z,1.9
2023-07-24T23:51:29.921Z,2.1
2023-07-24T23:55:35.303Z,3.2
2023-07-24T23:57:36.509Z,2.7
